sensor_id;sensor_type;location;lat;lon;timestamp;pressure;altitude;pressure_sealevel;temperature
68745;BMP180;73143;45.456;11.064;2024-03-08T00:00:29;100547.40;;;10.70
68745;BMP180;73143;45.456;11.064;2024-03-08T00:03:07;100547.80;;;10.70
68745;BMP180;73143;45.456;11.064;2024-03-08T00:05:45;100545.00;;;10.70
68745;BMP180;73143;45.456;11.064;2024-03-08T00:08:21;100544.00;;;10.70
68745;BMP180;73143;45.456;11.064;2024-03-08T00:10:58;100552.00;;;10.70
68745;BMP180;73143;45.456;11.064;2024-03-08T00:13:34;100547.20;;;10.70
68745;BMP180;73143;45.456;11.064;2024-03-08T00:16:12;100548.20;;;10.70
68745;BMP180;73143;45.456;11.064;2024-03-08T00:18:48;100549.60;;;10.60
68745;BMP180;73143;45.456;11.064;2024-03-08T00:21:24;100550.60;;;10.60
68745;BMP180;73143;45.456;11.064;2024-03-08T00:24:00;100547.00;;;10.54
68745;BMP180;73143;45.456;11.064;2024-03-08T00:26:36;100540.80;;;10.50
68745;BMP180;73143;45.456;11.064;2024-03-08T00:29:13;100546.40;;;10.50
68745;BMP180;73143;45.456;11.064;2024-03-08T00:31:50;100544.40;;;10.50
68745;BMP180;73143;45.456;11.064;2024-03-08T00:34:26;100539.00;;;10.50
68745;BMP180;73143;45.456;11.064;2024-03-08T00:37:02;100538.60;;;10.44
68745;BMP180;73143;45.456;11.064;2024-03-08T00:39:39;100539.00;;;10.40
68745;BMP180;73143;45.456;11.064;2024-03-08T00:42:19;100534.40;;;10.40
68745;BMP180;73143;45.456;11.064;2024-03-08T00:44:55;100539.20;;;10.40
68745;BMP180;73143;45.456;11.064;2024-03-08T00:47:32;100533.80;;;10.30
68745;BMP180;73143;45.456;11.064;2024-03-08T00:50:11;100535.60;;;10.30
68745;BMP180;73143;45.456;11.064;2024-03-08T00:52:49;100532.80;;;10.30
68745;BMP180;73143;45.456;11.064;2024-03-08T00:55:25;100526.60;;;10.30
68745;BMP180;73143;45.456;11.064;2024-03-08T00:58:04;100533.60;;;10.30
68745;BMP180;73143;45.456;11.064;2024-03-08T01:00:40;100530.60;;;10.30
68745;BMP180;73143;45.456;11.064;2024-03-08T01:03:17;100533.00;;;10.30
68745;BMP180;73143;45.456;11.064;2024-03-08T01:05:54;100531.00;;;10.30
68745;BMP180;73143;45.456;11.064;2024-03-08T01:08:30;100531.40;;;10.30
68745;BMP180;73143;45.456;11.064;2024-03-08T01:11:07;100531.00;;;10.30
68745;BMP180;73143;45.456;11.064;2024-03-08T01:13:45;100528.20;;;10.30
68745;BMP180;73143;45.456;11.064;2024-03-08T01:16:22;100528.20;;;10.30
68745;BMP180;73143;45.456;11.064;2024-03-08T01:18:58;100519.40;;;10.30
68745;BMP180;73143;45.456;11.064;2024-03-08T01:21:35;100519.20;;;10.30
68745;BMP180;73143;45.456;11.064;2024-03-08T01:24:12;100516.00;;;10.30
68745;BMP180;73143;45.456;11.064;2024-03-08T01:26:48;100511.00;;;10.30
68745;BMP180;73143;45.456;11.064;2024-03-08T01:29:25;100518.80;;;10.30
68745;BMP180;73143;45.456;11.064;2024-03-08T01:32:01;100509.60;;;10.30
68745;BMP180;73143;45.456;11.064;2024-03-08T01:34:38;100508.60;;;10.30
68745;BMP180;73143;45.456;11.064;2024-03-08T01:37:14;100501.40;;;10.30
68745;BMP180;73143;45.456;11.064;2024-03-08T01:39:51;100495.20;;;10.30
68745;BMP180;73143;45.456;11.064;2024-03-08T01:42:28;100486.80;;;10.28
68745;BMP180;73143;45.456;11.064;2024-03-08T01:45:06;100493.00;;;10.22
68745;BMP180;73143;45.456;11.064;2024-03-08T01:47:43;100484.00;;;10.30
68745;BMP180;73143;45.456;11.064;2024-03-08T01:50:22;100486.00;;;10.30
68745;BMP180;73143;45.456;11.064;2024-03-08T01:52:58;100486.00;;;10.22
68745;BMP180;73143;45.456;11.064;2024-03-08T01:55:34;100490.60;;;10.28
68745;BMP180;73143;45.456;11.064;2024-03-08T01:58:14;100488.60;;;10.22
68745;BMP180;73143;45.456;11.064;2024-03-08T02:00:54;100487.00;;;10.26
68745;BMP180;73143;45.456;11.064;2024-03-08T02:03:31;100486.60;;;10.30
68745;BMP180;73143;45.456;11.064;2024-03-08T02:06:09;100481.60;;;10.30
68745;BMP180;73143;45.456;11.064;2024-03-08T02:08:46;100483.60;;;10.30
68745;BMP180;73143;45.456;11.064;2024-03-08T02:11:22;100479.40;;;10.30
68745;BMP180;73143;45.456;11.064;2024-03-08T02:14:00;100474.60;;;10.30
68745;BMP180;73143;45.456;11.064;2024-03-08T02:16:36;100484.60;;;10.30
68745;BMP180;73143;45.456;11.064;2024-03-08T02:19:14;100476.80;;;10.30
68745;BMP180;73143;45.456;11.064;2024-03-08T02:21:50;100475.40;;;10.30
68745;BMP180;73143;45.456;11.064;2024-03-08T02:24:28;100473.20;;;10.30
68745;BMP180;73143;45.456;11.064;2024-03-08T02:27:05;100474.40;;;10.30
68745;BMP180;73143;45.456;11.064;2024-03-08T02:29:42;100481.20;;;10.30
68745;BMP180;73143;45.456;11.064;2024-03-08T02:32:19;100481.20;;;10.30
68745;BMP180;73143;45.456;11.064;2024-03-08T02:34:58;100483.40;;;10.26
68745;BMP180;73143;45.456;11.064;2024-03-08T02:37:34;100477.00;;;10.20
68745;BMP180;73143;45.456;11.064;2024-03-08T02:40:15;100480.20;;;10.20
68745;BMP180;73143;45.456;11.064;2024-03-08T02:42:51;100476.40;;;10.20
68745;BMP180;73143;45.456;11.064;2024-03-08T02:45:28;100482.20;;;10.20
68745;BMP180;73143;45.456;11.064;2024-03-08T02:48:06;100483.20;;;10.20
68745;BMP180;73143;45.456;11.064;2024-03-08T02:50:43;100485.40;;;10.10
68745;BMP180;73143;45.456;11.064;2024-03-08T02:53:19;100488.80;;;10.10
68745;BMP180;73143;45.456;11.064;2024-03-08T02:55:56;100489.40;;;10.00
68745;BMP180;73143;45.456;11.064;2024-03-08T02:58:32;100489.40;;;10.00
68745;BMP180;73143;45.456;11.064;2024-03-08T03:01:09;100492.80;;;10.00
68745;BMP180;73143;45.456;11.064;2024-03-08T03:03:47;100489.40;;;9.98
68745;BMP180;73143;45.456;11.064;2024-03-08T03:06:23;100484.00;;;9.90
68745;BMP180;73143;45.456;11.064;2024-03-08T03:09:00;100477.80;;;9.90
68745;BMP180;73143;45.456;11.064;2024-03-08T03:11:36;100473.80;;;9.82
68745;BMP180;73143;45.456;11.064;2024-03-08T03:14:13;100477.00;;;9.80
68745;BMP180;73143;45.456;11.064;2024-03-08T03:16:50;100467.20;;;9.80
68745;BMP180;73143;45.456;11.064;2024-03-08T03:19:26;100468.40;;;9.70
68745;BMP180;73143;45.456;11.064;2024-03-08T03:22:04;100470.60;;;9.70
68745;BMP180;73143;45.456;11.064;2024-03-08T03:24:40;100477.60;;;9.66
68745;BMP180;73143;45.456;11.064;2024-03-08T03:27:17;100480.20;;;9.60
68745;BMP180;73143;45.456;11.064;2024-03-08T03:29:53;100480.60;;;9.60
68745;BMP180;73143;45.456;11.064;2024-03-08T03:32:31;100492.40;;;9.50
68745;BMP180;73143;45.456;11.064;2024-03-08T03:35:09;100488.40;;;9.50
68745;BMP180;73143;45.456;11.064;2024-03-08T03:37:47;100489.80;;;9.50
68745;BMP180;73143;45.456;11.064;2024-03-08T03:40:35;100478.00;;;9.46
68745;BMP180;73143;45.456;11.064;2024-03-08T03:43:13;100479.80;;;9.40
68745;BMP180;73143;45.456;11.064;2024-03-08T03:45:49;100477.60;;;9.40
68745;BMP180;73143;45.456;11.064;2024-03-08T03:48:26;100481.80;;;9.40
68745;BMP180;73143;45.456;11.064;2024-03-08T03:51:03;100481.20;;;9.40
68745;BMP180;73143;45.456;11.064;2024-03-08T03:53:40;100476.60;;;9.38
68745;BMP180;73143;45.456;11.064;2024-03-08T03:56:16;100471.40;;;9.30
68745;BMP180;73143;45.456;11.064;2024-03-08T03:58:52;100479.00;;;9.30
68745;BMP180;73143;45.456;11.064;2024-03-08T04:01:29;100476.60;;;9.30
68745;BMP180;73143;45.456;11.064;2024-03-08T04:04:10;100483.00;;;9.30
68745;BMP180;73143;45.456;11.064;2024-03-08T04:06:47;100466.40;;;9.30
68745;BMP180;73143;45.456;11.064;2024-03-08T04:09:24;100470.20;;;9.30
68745;BMP180;73143;45.456;11.064;2024-03-08T04:12:01;100462.80;;;9.30
68745;BMP180;73143;45.456;11.064;2024-03-08T04:14:38;100467.40;;;9.30
68745;BMP180;73143;45.456;11.064;2024-03-08T04:17:14;100469.80;;;9.30
68745;BMP180;73143;45.456;11.064;2024-03-08T04:19:52;100480.80;;;9.30
68745;BMP180;73143;45.456;11.064;2024-03-08T04:22:28;100470.20;;;9.30
68745;BMP180;73143;45.456;11.064;2024-03-08T04:25:04;100465.40;;;9.30
68745;BMP180;73143;45.456;11.064;2024-03-08T04:27:40;100461.40;;;9.30
68745;BMP180;73143;45.456;11.064;2024-03-08T04:30:19;100462.60;;;9.30
68745;BMP180;73143;45.456;11.064;2024-03-08T04:32:55;100462.40;;;9.30
68745;BMP180;73143;45.456;11.064;2024-03-08T04:35:31;100457.00;;;9.30
68745;BMP180;73143;45.456;11.064;2024-03-08T04:38:08;100454.40;;;9.28
68745;BMP180;73143;45.456;11.064;2024-03-08T04:40:45;100469.20;;;9.28
68745;BMP180;73143;45.456;11.064;2024-03-08T04:43:21;100457.80;;;9.30
68745;BMP180;73143;45.456;11.064;2024-03-08T04:45:59;100459.00;;;9.30
68745;BMP180;73143;45.456;11.064;2024-03-08T04:48:37;100460.80;;;9.30
68745;BMP180;73143;45.456;11.064;2024-03-08T04:51:15;100469.20;;;9.22
68745;BMP180;73143;45.456;11.064;2024-03-08T04:53:53;100458.60;;;9.20
68745;BMP180;73143;45.456;11.064;2024-03-08T04:56:30;100470.60;;;9.20
68745;BMP180;73143;45.456;11.064;2024-03-08T04:59:07;100466.80;;;9.20
68745;BMP180;73143;45.456;11.064;2024-03-08T05:01:45;100470.00;;;9.20
68745;BMP180;73143;45.456;11.064;2024-03-08T05:04:21;100468.60;;;9.20
68745;BMP180;73143;45.456;11.064;2024-03-08T05:06:59;100476.80;;;9.20
68745;BMP180;73143;45.456;11.064;2024-03-08T05:09:36;100465.20;;;9.20
68745;BMP180;73143;45.456;11.064;2024-03-08T05:12:14;100471.00;;;9.20
68745;BMP180;73143;45.456;11.064;2024-03-08T05:14:51;100462.40;;;9.20
68745;BMP180;73143;45.456;11.064;2024-03-08T05:17:27;100466.40;;;9.20
68745;BMP180;73143;45.456;11.064;2024-03-08T05:20:04;100468.20;;;9.20
68745;BMP180;73143;45.456;11.064;2024-03-08T05:22:42;100467.00;;;9.20
68745;BMP180;73143;45.456;11.064;2024-03-08T05:25:19;100465.20;;;9.20
68745;BMP180;73143;45.456;11.064;2024-03-08T05:27:56;100465.80;;;9.20
68745;BMP180;73143;45.456;11.064;2024-03-08T05:30:34;100469.40;;;9.20
68745;BMP180;73143;45.456;11.064;2024-03-08T05:33:10;100473.00;;;9.20
68745;BMP180;73143;45.456;11.064;2024-03-08T05:35:48;100471.80;;;9.20
68745;BMP180;73143;45.456;11.064;2024-03-08T05:38:25;100475.40;;;9.20
68745;BMP180;73143;45.456;11.064;2024-03-08T05:41:01;100469.80;;;9.20
68745;BMP180;73143;45.456;11.064;2024-03-08T05:43:37;100473.40;;;9.20
68745;BMP180;73143;45.456;11.064;2024-03-08T05:46:17;100477.20;;;9.20
68745;BMP180;73143;45.456;11.064;2024-03-08T05:48:54;100477.20;;;9.20
68745;BMP180;73143;45.456;11.064;2024-03-08T05:51:31;100481.60;;;9.20
68745;BMP180;73143;45.456;11.064;2024-03-08T05:54:11;100485.40;;;9.20
68745;BMP180;73143;45.456;11.064;2024-03-08T05:56:52;100490.20;;;9.20
68745;BMP180;73143;45.456;11.064;2024-03-08T05:59:28;100485.40;;;9.20
68745;BMP180;73143;45.456;11.064;2024-03-08T06:02:05;100481.80;;;9.20
68745;BMP180;73143;45.456;11.064;2024-03-08T06:04:41;100485.60;;;9.20
68745;BMP180;73143;45.456;11.064;2024-03-08T06:07:18;100489.20;;;9.20
68745;BMP180;73143;45.456;11.064;2024-03-08T06:09:54;100500.20;;;9.20
68745;BMP180;73143;45.456;11.064;2024-03-08T06:12:30;100498.00;;;9.20
68745;BMP180;73143;45.456;11.064;2024-03-08T06:15:12;100507.60;;;9.20
68745;BMP180;73143;45.456;11.064;2024-03-08T06:17:49;100502.20;;;9.20
68745;BMP180;73143;45.456;11.064;2024-03-08T06:20:26;100499.00;;;9.18
68745;BMP180;73143;45.456;11.064;2024-03-08T06:23:03;100508.00;;;9.20
68745;BMP180;73143;45.456;11.064;2024-03-08T06:25:40;100505.60;;;9.20
68745;BMP180;73143;45.456;11.064;2024-03-08T06:28:16;100510.00;;;9.20
68745;BMP180;73143;45.456;11.064;2024-03-08T06:30:52;100511.00;;;9.14
68745;BMP180;73143;45.456;11.064;2024-03-08T06:33:29;100517.60;;;9.10
68745;BMP180;73143;45.456;11.064;2024-03-08T06:36:08;100514.00;;;9.10
68745;BMP180;73143;45.456;11.064;2024-03-08T06:38:46;100514.00;;;9.10
68745;BMP180;73143;45.456;11.064;2024-03-08T06:41:23;100514.40;;;9.10
68745;BMP180;73143;45.456;11.064;2024-03-08T06:44:00;100511.40;;;9.10
68745;BMP180;73143;45.456;11.064;2024-03-08T06:46:35;100516.80;;;9.10
68745;BMP180;73143;45.456;11.064;2024-03-08T06:49:12;100521.00;;;9.10
68745;BMP180;73143;45.456;11.064;2024-03-08T06:51:49;100517.00;;;9.10
68745;BMP180;73143;45.456;11.064;2024-03-08T06:54:26;100519.80;;;9.10
68745;BMP180;73143;45.456;11.064;2024-03-08T06:57:03;100511.40;;;9.10
68745;BMP180;73143;45.456;11.064;2024-03-08T06:59:40;100504.40;;;9.10
68745;BMP180;73143;45.456;11.064;2024-03-08T07:02:16;100508.20;;;9.12
68745;BMP180;73143;45.456;11.064;2024-03-08T07:04:52;100513.80;;;9.18
68745;BMP180;73143;45.456;11.064;2024-03-08T07:07:28;100509.00;;;9.16
68745;BMP180;73143;45.456;11.064;2024-03-08T07:10:08;100512.00;;;9.20
68745;BMP180;73143;45.456;11.064;2024-03-08T07:12:48;100504.00;;;9.20
68745;BMP180;73143;45.456;11.064;2024-03-08T07:15:25;100515.60;;;9.20
68745;BMP180;73143;45.456;11.064;2024-03-08T07:18:02;100525.40;;;9.20
68745;BMP180;73143;45.456;11.064;2024-03-08T07:20:39;100534.20;;;9.20
68745;BMP180;73143;45.456;11.064;2024-03-08T07:23:15;100537.20;;;9.22
68745;BMP180;73143;45.456;11.064;2024-03-08T07:26:16;100532.80;;;9.30
68745;BMP180;73143;45.456;11.064;2024-03-08T07:28:52;100537.60;;;9.30
68745;BMP180;73143;45.456;11.064;2024-03-08T07:31:28;100541.40;;;9.40
68745;BMP180;73143;45.456;11.064;2024-03-08T07:34:17;100540.00;;;9.40
68745;BMP180;73143;45.456;11.064;2024-03-08T07:36:54;100537.40;;;9.40
68745;BMP180;73143;45.456;11.064;2024-03-08T07:39:30;100541.40;;;9.40
68745;BMP180;73143;45.456;11.064;2024-03-08T07:42:07;100552.60;;;9.40
68745;BMP180;73143;45.456;11.064;2024-03-08T07:44:44;100550.80;;;9.40
68745;BMP180;73143;45.456;11.064;2024-03-08T07:47:22;100551.20;;;9.44
68745;BMP180;73143;45.456;11.064;2024-03-08T07:49:58;100549.40;;;9.50
68745;BMP180;73143;45.456;11.064;2024-03-08T07:52:38;100549.20;;;9.50
68745;BMP180;73143;45.456;11.064;2024-03-08T07:55:17;100545.00;;;9.50
68745;BMP180;73143;45.456;11.064;2024-03-08T07:57:53;100544.60;;;9.50
68745;BMP180;73143;45.456;11.064;2024-03-08T08:00:31;100555.40;;;9.60
68745;BMP180;73143;45.456;11.064;2024-03-08T08:03:08;100556.20;;;9.60
68745;BMP180;73143;45.456;11.064;2024-03-08T08:05:45;100555.40;;;9.60
68745;BMP180;73143;45.456;11.064;2024-03-08T08:08:22;100552.80;;;9.60
68745;BMP180;73143;45.456;11.064;2024-03-08T08:11:00;100551.00;;;9.56
68745;BMP180;73143;45.456;11.064;2024-03-08T08:13:36;100549.00;;;9.50
68745;BMP180;73143;45.456;11.064;2024-03-08T08:16:13;100556.80;;;9.50
68745;BMP180;73143;45.456;11.064;2024-03-08T08:18:49;100555.00;;;9.44
68745;BMP180;73143;45.456;11.064;2024-03-08T08:21:26;100553.60;;;9.40
68745;BMP180;73143;45.456;11.064;2024-03-08T08:24:02;100557.80;;;9.40
68745;BMP180;73143;45.456;11.064;2024-03-08T08:26:37;100560.80;;;9.40
68745;BMP180;73143;45.456;11.064;2024-03-08T08:29:13;100555.80;;;9.40
68745;BMP180;73143;45.456;11.064;2024-03-08T08:31:49;100549.80;;;9.40
68745;BMP180;73143;45.456;11.064;2024-03-08T11:46:14;100534.60;;;10.56
68745;BMP180;73143;45.456;11.064;2024-03-08T11:49:05;100526.80;;;10.60
68745;BMP180;73143;45.456;11.064;2024-03-08T11:51:55;100519.80;;;10.70
68745;BMP180;73143;45.456;11.064;2024-03-08T11:54:38;100519.00;;;10.70
68745;BMP180;73143;45.456;11.064;2024-03-08T11:57:30;100519.80;;;10.70
68745;BMP180;73143;45.456;11.064;2024-03-08T12:00:22;100510.20;;;10.88
68745;BMP180;73143;45.456;11.064;2024-03-08T12:03:10;100511.20;;;11.10
68745;BMP180;73143;45.456;11.064;2024-03-08T12:06:08;100497.40;;;11.20
68745;BMP180;73143;45.456;11.064;2024-03-08T12:08:54;100502.80;;;11.30
68745;BMP180;73143;45.456;11.064;2024-03-08T12:11:51;100499.20;;;11.40
68745;BMP180;73143;45.456;11.064;2024-03-08T12:14:34;100500.40;;;11.40
68745;BMP180;73143;45.456;11.064;2024-03-08T12:17:17;100495.80;;;11.30
68745;BMP180;73143;45.456;11.064;2024-03-08T12:20:14;100505.60;;;11.30
68745;BMP180;73143;45.456;11.064;2024-03-08T12:22:58;100495.60;;;11.40
68745;BMP180;73143;45.456;11.064;2024-03-08T12:25:37;100490.40;;;11.42
68745;BMP180;73143;45.456;11.064;2024-03-08T12:28:15;100489.00;;;11.50
68745;BMP180;73143;45.456;11.064;2024-03-08T12:31:03;100484.60;;;11.50
68745;BMP180;73143;45.456;11.064;2024-03-08T12:33:57;100480.00;;;11.70
68745;BMP180;73143;45.456;11.064;2024-03-08T12:36:37;100481.80;;;11.70
68745;BMP180;73143;45.456;11.064;2024-03-08T12:39:22;100490.60;;;11.70
68745;BMP180;73143;45.456;11.064;2024-03-08T12:42:20;100488.60;;;11.60
68745;BMP180;73143;45.456;11.064;2024-03-08T12:44:59;100480.60;;;11.50
68745;BMP180;73143;45.456;11.064;2024-03-08T12:47:39;100480.60;;;11.40
68745;BMP180;73143;45.456;11.064;2024-03-08T12:50:26;100474.00;;;11.40
68745;BMP180;73143;45.456;11.064;2024-03-08T12:53:11;100497.40;;;11.40
68745;BMP180;73143;45.456;11.064;2024-03-08T12:55:48;100477.00;;;11.20
68745;BMP180;73143;45.456;11.064;2024-03-08T12:58:29;100475.60;;;11.20
68745;BMP180;73143;45.456;11.064;2024-03-08T13:01:06;100472.60;;;11.20
68745;BMP180;73143;45.456;11.064;2024-03-08T13:03:47;100474.00;;;11.20
68745;BMP180;73143;45.456;11.064;2024-03-08T13:06:32;100472.60;;;11.20
68745;BMP180;73143;45.456;11.064;2024-03-08T13:09:24;100472.80;;;11.20
68745;BMP180;73143;45.456;11.064;2024-03-08T13:12:04;100470.00;;;11.14
68745;BMP180;73143;45.456;11.064;2024-03-08T13:14:52;100465.80;;;11.16
68745;BMP180;73143;45.456;11.064;2024-03-08T13:17:40;100464.00;;;11.10
68745;BMP180;73143;45.456;11.064;2024-03-08T13:20:21;100461.60;;;11.10
68745;BMP180;73143;45.456;11.064;2024-03-08T13:23:08;100454.00;;;11.12
68745;BMP180;73143;45.456;11.064;2024-03-08T13:25:52;100450.80;;;11.18
68745;BMP180;73143;45.456;11.064;2024-03-08T13:28:33;100451.80;;;11.20
68745;BMP180;73143;45.456;11.064;2024-03-08T13:31:22;100447.60;;;11.20
68745;BMP180;73143;45.456;11.064;2024-03-08T13:34:01;100443.80;;;11.20
68745;BMP180;73143;45.456;11.064;2024-03-08T13:36:50;100444.60;;;11.20
68745;BMP180;73143;45.456;11.064;2024-03-08T13:39:29;100437.20;;;11.10
68745;BMP180;73143;45.456;11.064;2024-03-08T13:42:15;100437.20;;;11.10
68745;BMP180;73143;45.456;11.064;2024-03-08T13:44:57;100434.00;;;11.10
68745;BMP180;73143;45.456;11.064;2024-03-08T13:47:44;100434.20;;;11.10
68745;BMP180;73143;45.456;11.064;2024-03-08T13:50:26;100438.20;;;11.00
68745;BMP180;73143;45.456;11.064;2024-03-08T13:53:07;100434.20;;;10.92
68745;BMP180;73143;45.456;11.064;2024-03-08T13:55:48;100438.20;;;10.90
68745;BMP180;73143;45.456;11.064;2024-03-08T13:58:24;100427.20;;;10.90
68745;BMP180;73143;45.456;11.064;2024-03-08T14:01:11;100422.40;;;10.90
68745;BMP180;73143;45.456;11.064;2024-03-08T14:03:53;100419.60;;;10.88
68745;BMP180;73143;45.456;11.064;2024-03-08T14:06:29;100418.60;;;10.80
68745;BMP180;73143;45.456;11.064;2024-03-08T14:09:14;100416.80;;;10.80
68745;BMP180;73143;45.456;11.064;2024-03-08T14:11:58;100415.00;;;10.80
68745;BMP180;73143;45.456;11.064;2024-03-08T14:14:45;100407.60;;;10.80
68745;BMP180;73143;45.456;11.064;2024-03-08T14:17:28;100406.00;;;10.80
68745;BMP180;73143;45.456;11.064;2024-03-08T14:20:15;100409.80;;;10.70
68745;BMP180;73143;45.456;11.064;2024-03-08T14:22:58;100411.60;;;10.60
68745;BMP180;73143;45.456;11.064;2024-03-08T14:25:40;100396.40;;;10.50
68745;BMP180;73143;45.456;11.064;2024-03-08T14:28:17;100397.60;;;10.50
68745;BMP180;73143;45.456;11.064;2024-03-08T14:31:02;100395.80;;;10.50
68745;BMP180;73143;45.456;11.064;2024-03-08T14:33:40;100381.80;;;10.50
68745;BMP180;73143;45.456;11.064;2024-03-08T14:36:16;100382.40;;;10.60
68745;BMP180;73143;45.456;11.064;2024-03-08T14:38:59;100379.40;;;10.60
68745;BMP180;73143;45.456;11.064;2024-03-08T14:41:40;100376.60;;;10.60
68745;BMP180;73143;45.456;11.064;2024-03-08T14:44:22;100381.60;;;10.60
68745;BMP180;73143;45.456;11.064;2024-03-08T14:46:59;100377.80;;;10.60
68745;BMP180;73143;45.456;11.064;2024-03-08T14:49:52;100377.60;;;10.54
68745;BMP180;73143;45.456;11.064;2024-03-08T14:52:39;100369.00;;;10.56
68745;BMP180;73143;45.456;11.064;2024-03-08T14:55:21;100367.20;;;10.68
68745;BMP180;73143;45.456;11.064;2024-03-08T14:58:10;100366.40;;;10.70
68745;BMP180;73143;45.456;11.064;2024-03-08T15:00:53;100355.00;;;10.70
68745;BMP180;73143;45.456;11.064;2024-03-08T15:03:30;100361.20;;;10.68
68745;BMP180;73143;45.456;11.064;2024-03-08T15:06:12;100367.20;;;10.70
68745;BMP180;73143;45.456;11.064;2024-03-08T15:09:02;100347.20;;;10.70
68745;BMP180;73143;45.456;11.064;2024-03-08T15:12:00;100353.20;;;10.70
68745;BMP180;73143;45.456;11.064;2024-03-08T15:14:39;100350.20;;;10.70
68745;BMP180;73143;45.456;11.064;2024-03-08T15:17:18;100349.40;;;10.70
68745;BMP180;73143;45.456;11.064;2024-03-08T15:19:55;100358.20;;;10.64
68745;BMP180;73143;45.456;11.064;2024-03-08T15:22:38;100366.80;;;10.60
68745;BMP180;73143;45.456;11.064;2024-03-08T15:25:19;100373.20;;;10.50
68745;BMP180;73143;45.456;11.064;2024-03-08T15:28:04;100368.80;;;10.50
68745;BMP180;73143;45.456;11.064;2024-03-08T15:30:53;100379.40;;;10.50
68745;BMP180;73143;45.456;11.064;2024-03-08T15:33:42;100375.40;;;10.40
68745;BMP180;73143;45.456;11.064;2024-03-08T15:36:35;100367.40;;;10.40
68745;BMP180;73143;45.456;11.064;2024-03-08T15:39:20;100363.20;;;10.40
68745;BMP180;73143;45.456;11.064;2024-03-08T15:41:58;100366.20;;;10.46
68745;BMP180;73143;45.456;11.064;2024-03-08T15:44:41;100358.80;;;10.40
68745;BMP180;73143;45.456;11.064;2024-03-08T15:47:20;100367.00;;;10.40
68745;BMP180;73143;45.456;11.064;2024-03-08T15:50:06;100360.40;;;10.30
68745;BMP180;73143;45.456;11.064;2024-03-08T15:52:50;100362.40;;;10.22
68745;BMP180;73143;45.456;11.064;2024-03-08T15:55:31;100369.60;;;10.20
68745;BMP180;73143;45.456;11.064;2024-03-08T15:58:09;100372.40;;;10.10
68745;BMP180;73143;45.456;11.064;2024-03-08T16:00:53;100364.40;;;10.10
68745;BMP180;73143;45.456;11.064;2024-03-08T16:03:39;100372.60;;;10.10
68745;BMP180;73143;45.456;11.064;2024-03-08T16:06:28;100369.80;;;10.10
68745;BMP180;73143;45.456;11.064;2024-03-08T16:09:17;100373.40;;;10.10
68745;BMP180;73143;45.456;11.064;2024-03-08T16:12:01;100373.60;;;10.10
68745;BMP180;73143;45.456;11.064;2024-03-08T16:14:43;100374.00;;;10.10
68745;BMP180;73143;45.456;11.064;2024-03-08T16:17:25;100370.80;;;10.10
68745;BMP180;73143;45.456;11.064;2024-03-08T16:20:01;100370.60;;;10.10
68745;BMP180;73143;45.456;11.064;2024-03-08T16:22:51;100379.20;;;10.10
68745;BMP180;73143;45.456;11.064;2024-03-08T16:25:28;100377.00;;;10.00
68745;BMP180;73143;45.456;11.064;2024-03-08T16:28:15;100377.60;;;10.00
68745;BMP180;73143;45.456;11.064;2024-03-08T16:30:59;100369.00;;;10.00
68745;BMP180;73143;45.456;11.064;2024-03-08T16:33:45;100371.60;;;10.00
68745;BMP180;73143;45.456;11.064;2024-03-08T16:36:21;100370.00;;;10.00
68745;BMP180;73143;45.456;11.064;2024-03-08T16:39:07;100367.40;;;10.00
68745;BMP180;73143;45.456;11.064;2024-03-08T16:41:53;100364.00;;;10.00
68745;BMP180;73143;45.456;11.064;2024-03-08T16:44:30;100368.20;;;9.90
68745;BMP180;73143;45.456;11.064;2024-03-08T16:47:09;100367.60;;;9.90
68745;BMP180;73143;45.456;11.064;2024-03-08T16:49:53;100367.60;;;9.90
68745;BMP180;73143;45.456;11.064;2024-03-08T16:52:29;100355.80;;;9.82
68745;BMP180;73143;45.456;11.064;2024-03-08T16:55:11;100358.00;;;9.80
68745;BMP180;73143;45.456;11.064;2024-03-08T16:57:53;100354.00;;;9.80
68745;BMP180;73143;45.456;11.064;2024-03-08T17:00:29;100364.20;;;9.88
68745;BMP180;73143;45.456;11.064;2024-03-08T17:03:09;100357.40;;;9.80
68745;BMP180;73143;45.456;11.064;2024-03-08T17:05:54;100351.40;;;9.80
68745;BMP180;73143;45.456;11.064;2024-03-08T17:08:35;100350.60;;;9.80
68745;BMP180;73143;45.456;11.064;2024-03-08T17:11:17;100360.80;;;9.80
68745;BMP180;73143;45.456;11.064;2024-03-08T17:13:59;100347.60;;;9.70
68745;BMP180;73143;45.456;11.064;2024-03-08T17:16:40;100340.00;;;9.70
68745;BMP180;73143;45.456;11.064;2024-03-08T17:19:24;100345.80;;;9.60
68745;BMP180;73143;45.456;11.064;2024-03-08T17:22:08;100331.80;;;9.60
68745;BMP180;73143;45.456;11.064;2024-03-08T17:24:44;100328.40;;;9.60
68745;BMP180;73143;45.456;11.064;2024-03-08T17:27:28;100328.60;;;9.60
68745;BMP180;73143;45.456;11.064;2024-03-08T17:30:14;100340.80;;;9.60
68745;BMP180;73143;45.456;11.064;2024-03-08T17:33:07;100335.20;;;9.60
68745;BMP180;73143;45.456;11.064;2024-03-08T17:35:55;100324.80;;;9.60
68745;BMP180;73143;45.456;11.064;2024-03-08T17:38:37;100326.20;;;9.60
68745;BMP180;73143;45.456;11.064;2024-03-08T17:41:25;100337.00;;;9.60
68745;BMP180;73143;45.456;11.064;2024-03-08T17:44:02;100329.20;;;9.60
68745;BMP180;73143;45.456;11.064;2024-03-08T17:46:40;100326.80;;;9.60
68745;BMP180;73143;45.456;11.064;2024-03-08T17:49:22;100319.40;;;9.60
68745;BMP180;73143;45.456;11.064;2024-03-08T17:52:02;100320.20;;;9.60
68745;BMP180;73143;45.456;11.064;2024-03-08T17:54:41;100329.80;;;9.60
68745;BMP180;73143;45.456;11.064;2024-03-08T17:57:18;100338.40;;;9.60
68745;BMP180;73143;45.456;11.064;2024-03-08T17:59:55;100336.00;;;9.60
68745;BMP180;73143;45.456;11.064;2024-03-08T18:02:39;100333.80;;;9.60
68745;BMP180;73143;45.456;11.064;2024-03-08T18:05:16;100339.40;;;9.62
68745;BMP180;73143;45.456;11.064;2024-03-08T18:07:52;100332.20;;;9.62
68745;BMP180;73143;45.456;11.064;2024-03-08T18:10:35;100334.00;;;9.68